Flight Track Log - Related Links

Times and Time Zones

All times are in EDT time to prevent confusion due to time zone crossing. See the MJI22 flight status page for this flight to view local times or setup timezone preferences in your user account.

Time Position Orientation Groundspeed Altitude Reporting Facility
EDT Latitude Longitude Course Direction KTS MPH feet Rate Location/Type
Tue 10:30:45 AM 40.1000 -75.0167 308° West 169 194 700  Level Philadelphia TRACON
Tue 10:32:03 AM 40.1500 -75.1000 308° West 246 283 4,300 2,652 Climbing Philadelphia TRACON
Tue 10:33:03 AM 40.2167 -75.1167 349° North 263 303 6,800 1,286 Climbing Philadelphia TRACON
Tue 10:34:09 AM 40.2167 -75.0167 90° East 302 348 7,000 91 Climbing Philadelphia TRACON
Tue 10:35:15 AM 40.1333 -74.9667 155° Southeast 288 331 7,000  Level Philadelphia TRACON
Tue 10:36:15 AM 40.0500 -74.9833 189° South 275 316 7,000 850 Level Philadelphia TRACON
Tue 10:37:15 AM 39.9833 -75.0333 210° Southwest 275 316 8,700 1,474 Climbing Philadelphia TRACON
Tue 10:38:09 AM 39.9333 -75.0833 217° Southwest 291 335 9,800 684 Climbing Philadelphia TRACON
Tue 10:39:09 AM 39.8500 -75.1333 205° Southwest 303 349 10,000 100 Climbing Philadelphia TRACON
Tue 10:40:09 AM 39.7833 -75.1833 210° Southwest 314 361 10,000 450 Level Philadelphia TRACON
Tue 10:41:09 AM 39.7000 -75.2500 212° Southwest 300 345 10,900 1,000 Climbing Philadelphia TRACON
Tue 10:42:09 AM 39.6333 -75.3000 210° Southwest 320 368 12,000 553 Climbing Philadelphia TRACON
Tue 10:43:30 AM 39.5111 -75.3253 189° South 333 383 12,200 691 Climbing Washington Center
Tue 10:44:28 AM 39.4258 -75.3417 188° South 328 377 13,600 1,513 Climbing Washington Center
Tue 10:45:29 AM 39.3383 -75.3581 188° South 328 377 15,200 1,587 Climbing Washington Center
Tue 10:46:29 AM 39.2444 -75.3744 188° South 335 386 16,800 893 Climbing Washington Center
Tue 10:47:30 AM 39.1486 -75.3908 188° South 341 392 17,000 248 Climbing Washington Center
Tue 10:48:30 AM 39.0444 -75.4100 188° South 362 417 17,300 1,059 Climbing Washington Center
Tue 10:49:29 AM 38.9297 -75.4261 186° South 396 456 19,100 2,319 Climbing Washington Center
Tue 10:50:29 AM 38.8194 -75.4397 185° South 409 471 21,900 2,331 Climbing Washington Center
Tue 10:51:30 AM 38.7089 -75.4586 188° South 409 471 23,800 1,785 Climbing Washington Center
Tue 10:52:30 AM 38.5983 -75.4747 186° South 409 471 25,500 1,729 Climbing Washington Center
Tue 10:53:28 AM 38.4881 -75.4936 188° South 409 471 27,200 1,765 Climbing Washington Center
Tue 10:54:29 AM 38.3753 -75.5069 185° South 409 471 29,000 1,525 Climbing Washington Center
Tue 10:55:30 AM 38.2775 -75.5414 195° South 404 465 30,300 893 Climbing Washington Center
Tue 10:56:30 AM 38.1753 -75.6022 205° Southwest 409 471 30,800 610 Climbing Washington Center
Tue 10:57:28 AM 38.0606 -75.6631 203° Southwest 422 486 31,500 857 Climbing Washington Center
Tue 10:58:29 AM 37.9561 -75.7233 204° Southwest 428 493 32,500 787 Climbing Washington Center
Tue 10:59:30 AM 37.8478 -75.7892 206° Southwest 428 493 33,100 248 Climbing Washington Center
Tue 11:00:30 AM 37.7558 -75.8308 200° South 428 493 33,000 403 Descending Washington Center
Tue 11:01:29 AM 37.6222 -75.9039 203° Southwest 439 505 33,900 550 Climbing Washington Center
Tue 11:02:30 AM 37.5072 -75.9636 202° Southwest 439 505 34,100 49 Climbing Washington Center
Tue 11:03:31 AM 37.4131 -76.0572 218° Southwest 439 505 34,000 -51 Descending Washington Center
Tue 11:04:28 AM 37.3333 -76.1508 223° Southwest 439 505 34,000  Level Washington Center
Tue 11:05:29 AM 37.2328 -76.2647 222° Southwest 444 511 34,000  Level Washington Center
Tue 11:06:29 AM 37.1486 -76.3736 226° Southwest 444 511 34,000  Level Washington Center
Tue 11:07:28 AM 37.0583 -76.4742 222° Southwest 438 504 34,000 200 Level Washington Center
Tue 11:08:29 AM 36.9472 -76.5431 206° Southwest 440 506 34,400 595 Climbing Washington Center
Tue 11:09:29 AM 36.8381 -76.6039 204° Southwest 440 506 35,200 650 Climbing Washington Center
Tue 11:10:29 AM 36.7269 -76.6700 205° Southwest 440 506 35,700 545 Climbing Washington Center
Tue 11:11:30 AM 36.6094 -76.7461 207° Southwest 440 506 36,300 590 Climbing Washington Center
Tue 11:12:31 AM 36.4983 -76.8114 205° Southwest 435 501 36,900 610 Climbing Washington Center
Tue 11:13:28 AM 36.3892 -76.8744 205° Southwest 435 501 37,500 513 Climbing Washington Center
Tue 11:14:28 AM 36.2778 -76.9394 205° Southwest 435 501 37,900 149 Climbing Washington Center
Tue 11:15:29 AM 36.1664 -77.0044 205° Southwest 445 512 37,800  Descending Washington Center
Tue 11:16:30 AM 36.0550 -77.0719 206° Southwest 445 512 37,900 99 Climbing Washington Center
Tue 11:17:30 AM 35.9628 -77.1242 205° Southwest 445 512 38,000 51 Climbing Washington Center
Tue 11:18:28 AM 35.8328 -77.1650 194° South 445 512 38,000  Level Washington Center
Tue 11:19:29 AM 35.7050 -77.1933 190° South 453 521 38,000  Level Washington Center
Tue 11:20:29 AM 35.5794 -77.2239 191° South 463 533 38,000  Level Washington Center
Tue 11:21:28 AM 35.4519 -77.2519 190° South 468 539 38,000  Level Washington Center
Tue 11:22:28 AM 35.3264 -77.2800 190° South 468 539 38,000  Level Washington Center
Tue 11:23:28 AM 35.1986 -77.3103 191° South 468 539 38,000  Level Washington Center
Tue 11:24:29 AM 35.0603 -77.3403 190° South 468 539 38,000  Level Washington Center
Tue 11:25:29 AM 34.9347 -77.3656 189° South 468 539 38,000  Level Washington Center
Tue 11:26:30 AM 34.8092 -77.3981 192° South 468 539 38,000  Level Washington Center
Tue 11:27:28 AM 34.6836 -77.4258 190° South 468 539 38,000  Level Washington Center
Tue 11:28:28 AM 34.5536 -77.4556 191° South 468 539 38,000  Level Washington Center
Tue 11:29:29 AM 34.4300 -77.4981 196° South 468 539 38,000  Level Washington Center
Tue 11:30:30 AM 34.3042 -77.5381 195° South 474 545 38,000  Level Washington Center
Tue 11:32:06 AM 34.1050 -77.5986 194° South 487 560 38,000  Level Jacksonville Center
Tue 11:33:06 AM 33.9775 -77.6414 196° South 487 560 38,000  Level Jacksonville Center
Tue 11:34:06 AM 33.8519 -77.6814 195° South 487 560 38,000  Level Jacksonville Center
Tue 11:35:06 AM 33.7261 -77.7214 195° South 482 555 38,000  Level Jacksonville Center
Tue 11:36:06 AM 33.5842 -77.7694 196° South 482 555 38,000  Level Jacksonville Center
Tue 11:37:06 AM 33.4586 -77.8092 195° South 477 549 38,000  Level Jacksonville Center
Tue 11:38:06 AM 33.3308 -77.8486 194° South 477 549 38,000  Level Jacksonville Center
Tue 11:39:06 AM 33.2050 -77.8881 195° South 477 549 38,000  Level Jacksonville Center
Tue 11:40:06 AM 33.1019 -77.9186 194° South 472 543 38,000  Level Jacksonville Center
Tue 11:41:06 AM 32.9639 -77.9633 195° South 472 543 38,000  Level Jacksonville Center
Tue 11:42:06 AM 32.8339 -78.0028 194° South 472 543 38,000  Level Jacksonville Center
Tue 11:43:06 AM 32.7081 -78.0417 195° South 472 543 38,000  Level Jacksonville Center
Tue 11:44:06 AM 32.5803 -78.0831 195° South 472 543 38,000  Level Jacksonville Center
Tue 11:45:06 AM 32.4544 -78.1192 194° South 472 543 38,000  Level Jacksonville Center
Tue 11:46:06 AM 32.3244 -78.1628 196° South 472 543 38,000  Level Jacksonville Center
Tue 11:47:06 AM 32.1942 -78.1967 192° South 472 543 38,000  Level Jacksonville Center
Tue 11:48:06 AM 32.0667 -78.2422 197° South 472 543 38,000  Level Jacksonville Center
Tue 11:49:06 AM 31.9367 -78.2856 196° South 477 549 38,000  Level Jacksonville Center
Tue 11:50:06 AM 31.8086 -78.3261 195° South 477 549 38,000  Level Jacksonville Center
Tue 11:51:06 AM 31.6828 -78.3667 195° South 482 555 38,000  Level Jacksonville Center
Tue 11:52:06 AM 31.5547 -78.4069 195° South 475 547 38,000  Level Jacksonville Center
Tue 11:53:06 AM 31.4247 -78.4497 196° South 475 547 38,000  Level Jacksonville Center
Tue 11:54:06 AM 31.2928 -78.4925 195° South 480 552 38,000  Level Jacksonville Center
Tue 11:55:06 AM 31.1644 -78.5300 194° South 486 559 38,000  Level Jacksonville Center
Tue 11:56:06 AM 31.0344 -78.5725 196° South 486 559 38,000  Level Jacksonville Center
Tue 11:57:06 AM 30.8900 -78.6178 195° South 486 559 38,000  Level Jacksonville Center
Tue 11:58:06 AM 30.7578 -78.6600 195° South 494 568 38,000  Level Jacksonville Center
Tue 11:59:06 AM 30.6275 -78.7019 195° South 489 563 38,000  Level Jacksonville Center
Tue 12:00:12 PM 30.5033 -78.7428 196° South 479 551 38,000  Level Miami Center
Tue 12:01:12 PM 30.3714 -78.7908 197° South 491 565 38,000  Level Miami Center
Tue 12:02:12 PM 30.2417 -78.8389 198° South 497 572 38,000  Level Miami Center
Tue 12:03:12 PM 30.1139 -78.8725 193° South 492 566 38,000  Level Miami Center
Tue 12:04:12 PM 29.9842 -78.9014 191° South 486 559 38,000  Level Miami Center
Tue 12:05:12 PM 29.8506 -78.9275 190° South 492 566 38,000  Level Miami Center
Tue 12:06:12 PM 29.7125 -78.9583 191° South 492 566 38,000  Level Miami Center
Tue 12:07:12 PM 29.5806 -78.9844 190° South 498 573 38,000  Level Miami Center
Tue 12:08:12 PM 29.4447 -79.0150 191° South 492 566 38,000  Level Miami Center
Tue 12:09:12 PM 29.3128 -79.0433 191° South 483 556 38,000  Level Miami Center
Tue 12:10:12 PM 29.1808 -79.0717 191° South 488 562 38,000 -300 Level Miami Center
Tue 12:11:12 PM 29.0447 -79.1022 191° South 489 563 37,400 -1,050 Descending Miami Center
Tue 12:12:12 PM 28.9233 -79.1306 192° South 481 554 35,900 -1,950 Descending Miami Center
Tue 12:13:12 PM 28.7789 -79.1608 190° South 476 548 33,500 -2,150 Descending Miami Center
Tue 12:14:12 PM 28.6492 -79.1889 191° South 476 548 31,600 -1,850 Descending Miami Center
Tue 12:15:12 PM 28.5192 -79.2144 190° South 476 548 29,800 -1,750 Descending Miami Center
Tue 12:16:12 PM 28.3997 -79.2403 191° South 483 556 28,100 -1,900 Descending Miami Center
Tue 12:17:12 PM 28.2533 -79.2725 191° South 488 562 26,000 -1,700 Descending Miami Center
Tue 12:18:12 PM 28.1233 -79.2981 190° South 488 562 24,700 -1,300 Descending Miami Center
Tue 12:19:12 PM 27.9892 -79.3258 190° South 488 562 23,400 -2,050 Descending Miami Center
Tue 12:20:12 PM 27.8858 -79.3917 209° Southwest 481 554 20,600 -2,250 Descending Miami Center
Tue 12:21:12 PM 27.7697 -79.4642 209° Southwest 481 554 18,900 -1,950 Descending Miami Center
Tue 12:22:12 PM 27.6514 -79.5411 210° Southwest 459 528 16,700 -2,200 Descending Miami Center
Tue 12:23:12 PM 27.5478 -79.6089 210° Southwest 441 507 14,500 -2,300 Descending Miami Center
Tue 12:24:12 PM 27.4464 -79.6767 211° Southwest 435 501 12,100 -2,300 Descending Miami Center
Tue 12:25:12 PM 27.3553 -79.7353 210° Southwest 426 490 9,900 -1,600 Descending Miami Center
Tue 12:26:12 PM 27.2664 -79.7939 210° Southwest 402 463 8,900 -950 Descending Miami Center
Tue 12:27:12 PM 27.1819 -79.8478 210° Southwest 340 391 8,000 -550 Descending Miami Center
Tue 12:28:12 PM 27.1078 -79.8947 209° Southwest 315 362 7,800 -900 Descending Miami Center
Tue 12:29:12 PM 27.0381 -79.9350 207° Southwest 297 342 6,200 -1,400 Descending Miami Center
Tue 12:30:12 PM 26.9808 -79.9661 206° Southwest 273 314 5,000 -600 Descending Miami Center
Tue 12:31:12 PM 26.9258 -80.0042 212° Southwest 255 293 5,000 -350 Level Miami Center
Tue 12:32:12 PM 26.8603 -80.0467 210° Southwest 248 285 4,300 -950 Descending Miami Center
Tue 12:33:12 PM 26.7947 -80.0731 200° South 262 302 3,100 -900 Descending Miami Center
Tue 12:34:12 PM 26.7258 -80.0828 187° South 254 292 2,500 -600 Descending Miami Center
Tue 12:36:00 PM 26.5275 -80.1186 197° South  Level FlightAware Approximate
Tue 12:43:00 PM 26.3785 -80.1077 180° South  Level Estimated
Tue 12:44:00 PM 26.3785 -80.1077 180° South  Level Estimated
Tue 12:45:00 PM 26.3785 -80.1077 180° South  Level Estimated
Tue 12:46:00 PM 26.3785 -80.1077 180° South  Level Estimated

Login

Don't have an account? Register now (free) for customized features, flight alerts, and more!